sensor_id;sensor_type;location;lat;lon;timestamp;pressure;altitude;pressure_sealevel;temperature;humidity
36598;BME280;22607;49.550;11.940;2022-11-15T00:00:34;96872.78;;;4.00;100.00
36598;BME280;22607;49.550;11.940;2022-11-15T00:03:00;96871.41;;;3.96;100.00
36598;BME280;22607;49.550;11.940;2022-11-15T00:05:26;96859.63;;;4.01;100.00
36598;BME280;22607;49.550;11.940;2022-11-15T00:07:53;96854.41;;;3.91;100.00
36598;BME280;22607;49.550;11.940;2022-11-15T00:10:21;96855.63;;;3.87;100.00
36598;BME280;22607;49.550;11.940;2022-11-15T00:12:47;96861.81;;;3.96;100.00
36598;BME280;22607;49.550;11.940;2022-11-15T00:15:14;96862.88;;;3.93;100.00
36598;BME280;22607;49.550;11.940;2022-11-15T00:17:40;96855.94;;;3.94;100.00
36598;BME280;22607;49.550;11.940;2022-11-15T00:20:06;96856.59;;;3.86;100.00
36598;BME280;22607;49.550;11.940;2022-11-15T00:22:33;96854.28;;;3.93;100.00
36598;BME280;22607;49.550;11.940;2022-11-15T00:24:59;96865.41;;;3.74;100.00
36598;BME280;22607;49.550;11.940;2022-11-15T00:27:26;96856.97;;;3.60;100.00
36598;BME280;22607;49.550;11.940;2022-11-15T00:29:53;96851.13;;;3.68;100.00
36598;BME280;22607;49.550;11.940;2022-11-15T00:32:19;96858.44;;;3.74;100.00
36598;BME280;22607;49.550;11.940;2022-11-15T00:34:47;96851.72;;;3.72;100.00
36598;BME280;22607;49.550;11.940;2022-11-15T00:37:13;96853.50;;;3.71;100.00
36598;BME280;22607;49.550;11.940;2022-11-15T00:39:40;96860.44;;;3.71;100.00
36598;BME280;22607;49.550;11.940;2022-11-15T00:42:06;96849.50;;;3.67;100.00
36598;BME280;22607;49.550;11.940;2022-11-15T00:44:32;96848.59;;;3.78;100.00
36598;BME280;22607;49.550;11.940;2022-11-15T00:47:00;96850.25;;;3.79;100.00
36598;BME280;22607;49.550;11.940;2022-11-15T00:49:26;96835.25;;;3.92;100.00
36598;BME280;22607;49.550;11.940;2022-11-15T00:51:53;96845.41;;;3.96;100.00
36598;BME280;22607;49.550;11.940;2022-11-15T00:54:20;96837.06;;;3.71;100.00
36598;BME280;22607;49.550;11.940;2022-11-15T00:56:46;96835.38;;;3.38;100.00
36598;BME280;22607;49.550;11.940;2022-11-15T00:59:13;96832.16;;;3.46;100.00
36598;BME280;22607;49.550;11.940;2022-11-15T01:01:39;96827.28;;;3.53;100.00
36598;BME280;22607;49.550;11.940;2022-11-15T01:04:06;96821.91;;;3.45;100.00
36598;BME280;22607;49.550;11.940;2022-11-15T01:06:33;96823.34;;;3.59;100.00
36598;BME280;22607;49.550;11.940;2022-11-15T01:08:59;96812.78;;;3.50;100.00
36598;BME280;22607;49.550;11.940;2022-11-15T01:11:25;96804.69;;;3.44;100.00
36598;BME280;22607;49.550;11.940;2022-11-15T01:13:52;96805.88;;;3.39;100.00
36598;BME280;22607;49.550;11.940;2022-11-15T01:16:18;96808.94;;;3.23;100.00
36598;BME280;22607;49.550;11.940;2022-11-15T01:18:45;96804.84;;;3.31;100.00
36598;BME280;22607;49.550;11.940;2022-11-15T01:21:15;96796.69;;;3.35;100.00
36598;BME280;22607;49.550;11.940;2022-11-15T01:23:42;96798.13;;;3.49;100.00
36598;BME280;22607;49.550;11.940;2022-11-15T01:26:10;96801.81;;;3.47;100.00
36598;BME280;22607;49.550;11.940;2022-11-15T01:28:38;96803.97;;;3.41;100.00
36598;BME280;22607;49.550;11.940;2022-11-15T01:31:06;96806.56;;;3.41;100.00
36598;BME280;22607;49.550;11.940;2022-11-15T01:33:34;96803.97;;;3.41;100.00
36598;BME280;22607;49.550;11.940;2022-11-15T01:36:07;96801.56;;;3.50;100.00
36598;BME280;22607;49.550;11.940;2022-11-15T01:38:34;96801.13;;;3.45;100.00
36598;BME280;22607;49.550;11.940;2022-11-15T01:41:01;96798.72;;;3.53;100.00
36598;BME280;22607;49.550;11.940;2022-11-15T01:43:29;96794.28;;;3.44;100.00
36598;BME280;22607;49.550;11.940;2022-11-15T01:46:12;96797.25;;;3.39;100.00
36598;BME280;22607;49.550;11.940;2022-11-15T01:48:44;96795.66;;;3.26;100.00
36598;BME280;22607;49.550;11.940;2022-11-15T01:51:11;96803.09;;;3.31;100.00
36598;BME280;22607;49.550;11.940;2022-11-15T01:53:40;96804.06;;;3.30;100.00
36598;BME280;22607;49.550;11.940;2022-11-15T01:56:09;96803.34;;;3.28;100.00
36598;BME280;22607;49.550;11.940;2022-11-15T01:58:36;96800.09;;;3.14;100.00
36598;BME280;22607;49.550;11.940;2022-11-15T02:01:04;96800.75;;;3.28;100.00
36598;BME280;22607;49.550;11.940;2022-11-15T02:03:33;96787.28;;;3.34;100.00
36598;BME280;22607;49.550;11.940;2022-11-15T02:06:01;96788.09;;;3.13;100.00
36598;BME280;22607;49.550;11.940;2022-11-15T02:08:31;96783.88;;;3.01;100.00
36598;BME280;22607;49.550;11.940;2022-11-15T02:10:58;96788.97;;;3.02;100.00
36598;BME280;22607;49.550;11.940;2022-11-15T02:13:24;96780.50;;;3.00;100.00
36598;BME280;22607;49.550;11.940;2022-11-15T02:15:59;96782.13;;;3.01;100.00
36598;BME280;22607;49.550;11.940;2022-11-15T02:18:32;96781.44;;;2.99;100.00
36598;BME280;22607;49.550;11.940;2022-11-15T02:21:06;96780.09;;;3.05;100.00
36598;BME280;22607;49.550;11.940;2022-11-15T02:23:58;96778.25;;;2.96;100.00
36598;BME280;22607;49.550;11.940;2022-11-15T02:26:43;96773.91;;;2.96;100.00
36598;BME280;22607;49.550;11.940;2022-11-15T02:34:34;96767.19;;;2.94;100.00
36598;BME280;22607;49.550;11.940;2022-11-15T02:37:20;96766.63;;;2.90;100.00
36598;BME280;22607;49.550;11.940;2022-11-15T02:39:51;96758.97;;;2.88;100.00
36598;BME280;22607;49.550;11.940;2022-11-15T02:42:24;96757.91;;;2.91;100.00
36598;BME280;22607;49.550;11.940;2022-11-15T02:45:12;96752.16;;;2.87;100.00
36598;BME280;22607;49.550;11.940;2022-11-15T02:47:44;96753.59;;;2.80;100.00
36598;BME280;22607;49.550;11.940;2022-11-15T02:50:12;96743.28;;;2.90;100.00
36598;BME280;22607;49.550;11.940;2022-11-15T02:52:44;96744.03;;;2.81;100.00
36598;BME280;22607;49.550;11.940;2022-11-15T02:58:43;96743.00;;;2.72;100.00
36598;BME280;22607;49.550;11.940;2022-11-15T03:00:42;96744.53;;;2.74;100.00
36598;BME280;22607;49.550;11.940;2022-11-15T03:03:17;96744.78;;;2.71;100.00
36598;BME280;22607;49.550;11.940;2022-11-15T03:05:53;96735.75;;;2.54;100.00
36598;BME280;22607;49.550;11.940;2022-11-15T03:15:53;96731.75;;;2.83;100.00
36598;BME280;22607;49.550;11.940;2022-11-15T03:18:34;96729.56;;;2.78;100.00
36598;BME280;22607;49.550;11.940;2022-11-15T03:21:02;96731.91;;;2.48;100.00
36598;BME280;22607;49.550;11.940;2022-11-15T03:23:31;96727.06;;;2.55;100.00
36598;BME280;22607;49.550;11.940;2022-11-15T03:25:59;96728.50;;;2.69;100.00
36598;BME280;22607;49.550;11.940;2022-11-15T03:31:12;96718.47;;;2.76;100.00
36598;BME280;22607;49.550;11.940;2022-11-15T03:33:59;96713.66;;;2.71;100.00
36598;BME280;22607;49.550;11.940;2022-11-15T03:36:31;96714.53;;;2.60;100.00
36598;BME280;22607;49.550;11.940;2022-11-15T03:39:01;96716.19;;;2.61;100.00
36598;BME280;22607;49.550;11.940;2022-11-15T03:41:29;96712.16;;;2.69;100.00
36598;BME280;22607;49.550;11.940;2022-11-15T03:44:09;96710.03;;;2.62;100.00
36598;BME280;22607;49.550;11.940;2022-11-15T03:46:39;96717.50;;;2.56;100.00
36598;BME280;22607;49.550;11.940;2022-11-15T03:49:09;96711.97;;;2.49;100.00
36598;BME280;22607;49.550;11.940;2022-11-15T03:51:37;96714.34;;;2.52;100.00
36598;BME280;22607;49.550;11.940;2022-11-15T03:54:05;96712.56;;;2.53;100.00
36598;BME280;22607;49.550;11.940;2022-11-15T03:56:32;96708.91;;;2.55;100.00
36598;BME280;22607;49.550;11.940;2022-11-15T03:58:58;96707.44;;;2.62;100.00
36598;BME280;22607;49.550;11.940;2022-11-15T04:01:25;96700.84;;;2.58;100.00
36598;BME280;22607;49.550;11.940;2022-11-15T04:03:52;96693.84;;;2.49;100.00
36598;BME280;22607;49.550;11.940;2022-11-15T04:06:19;96690.44;;;2.48;100.00
36598;BME280;22607;49.550;11.940;2022-11-15T04:08:45;96694.47;;;2.62;100.00
36598;BME280;22607;49.550;11.940;2022-11-15T04:11:11;96697.63;;;2.45;100.00
36598;BME280;22607;49.550;11.940;2022-11-15T04:13:37;96694.28;;;2.54;100.00
36598;BME280;22607;49.550;11.940;2022-11-15T04:16:04;96691.63;;;2.44;100.00
36598;BME280;22607;49.550;11.940;2022-11-15T04:18:30;96686.16;;;2.26;100.00
36598;BME280;22607;49.550;11.940;2022-11-15T04:20:57;96681.28;;;2.33;100.00
36598;BME280;22607;49.550;11.940;2022-11-15T04:23:42;96688.72;;;2.38;100.00
36598;BME280;22607;49.550;11.940;2022-11-15T04:26:27;96684.25;;;2.28;100.00
36598;BME280;22607;49.550;11.940;2022-11-15T04:28:53;96690.19;;;2.19;100.00
36598;BME280;22607;49.550;11.940;2022-11-15T04:31:38;96687.25;;;2.12;100.00
36598;BME280;22607;49.550;11.940;2022-11-15T04:34:05;96697.75;;;2.10;100.00
36598;BME280;22607;49.550;11.940;2022-11-15T04:36:31;96700.88;;;2.26;100.00
36598;BME280;22607;49.550;11.940;2022-11-15T04:39:16;96699.09;;;2.26;100.00
36598;BME280;22607;49.550;11.940;2022-11-15T04:41:42;96699.25;;;2.25;100.00
36598;BME280;22607;49.550;11.940;2022-11-15T04:44:09;96707.28;;;2.10;100.00
36598;BME280;22607;49.550;11.940;2022-11-15T04:46:35;96702.19;;;2.20;100.00
36598;BME280;22607;49.550;11.940;2022-11-15T04:49:02;96698.03;;;1.96;100.00
36598;BME280;22607;49.550;11.940;2022-11-15T04:51:28;96699.19;;;2.03;100.00
36598;BME280;22607;49.550;11.940;2022-11-15T04:53:55;96691.72;;;2.21;100.00
36598;BME280;22607;49.550;11.940;2022-11-15T04:56:21;96690.22;;;2.07;100.00
36598;BME280;22607;49.550;11.940;2022-11-15T04:58:50;96688.09;;;2.13;100.00
36598;BME280;22607;49.550;11.940;2022-11-15T05:01:17;96677.72;;;2.13;100.00
36598;BME280;22607;49.550;11.940;2022-11-15T05:03:44;96672.78;;;2.09;100.00
36598;BME280;22607;49.550;11.940;2022-11-15T05:06:37;96675.28;;;2.00;100.00
36598;BME280;22607;49.550;11.940;2022-11-15T05:09:03;96676.34;;;2.08;100.00
36598;BME280;22607;49.550;11.940;2022-11-15T05:11:30;96671.53;;;2.25;100.00
36598;BME280;22607;49.550;11.940;2022-11-15T05:13:56;96678.25;;;1.95;100.00
36598;BME280;22607;49.550;11.940;2022-11-15T05:16:23;96678.72;;;2.00;100.00
36598;BME280;22607;49.550;11.940;2022-11-15T05:18:53;96670.03;;;1.90;100.00
36598;BME280;22607;49.550;11.940;2022-11-15T05:21:20;96669.69;;;1.83;100.00
36598;BME280;22607;49.550;11.940;2022-11-15T05:23:46;96657.19;;;1.88;100.00
36598;BME280;22607;49.550;11.940;2022-11-15T05:26:14;96668.03;;;1.82;100.00
36598;BME280;22607;49.550;11.940;2022-11-15T05:28:41;96663.44;;;1.86;100.00
36598;BME280;22607;49.550;11.940;2022-11-15T05:31:08;96662.94;;;1.92;100.00
36598;BME280;22607;49.550;11.940;2022-11-15T05:33:35;96664.63;;;1.70;100.00
36598;BME280;22607;49.550;11.940;2022-11-15T05:36:12;96656.13;;;1.91;100.00
36598;BME280;22607;49.550;11.940;2022-11-15T05:38:41;96654.47;;;1.90;100.00
36598;BME280;22607;49.550;11.940;2022-11-15T05:41:08;96651.91;;;1.78;100.00
36598;BME280;22607;49.550;11.940;2022-11-15T05:43:35;96645.88;;;1.89;100.00
36598;BME280;22607;49.550;11.940;2022-11-15T05:46:02;96647.16;;;1.95;100.00
36598;BME280;22607;49.550;11.940;2022-11-15T05:48:29;96641.47;;;2.01;100.00
36598;BME280;22607;49.550;11.940;2022-11-15T05:50:56;96653.53;;;1.79;100.00
36598;BME280;22607;49.550;11.940;2022-11-15T05:53:24;96654.16;;;1.72;100.00
36598;BME280;22607;49.550;11.940;2022-11-15T05:55:51;96661.13;;;1.71;100.00
36598;BME280;22607;49.550;11.940;2022-11-15T05:58:18;96660.25;;;1.82;100.00
36598;BME280;22607;49.550;11.940;2022-11-15T06:00:45;96663.72;;;1.71;100.00
36598;BME280;22607;49.550;11.940;2022-11-15T06:03:11;96660.88;;;1.63;100.00
36598;BME280;22607;49.550;11.940;2022-11-15T06:05:40;96664.91;;;1.44;100.00
36598;BME280;22607;49.550;11.940;2022-11-15T06:08:06;96667.03;;;1.39;100.00
36598;BME280;22607;49.550;11.940;2022-11-15T06:10:33;96656.31;;;1.43;100.00
36598;BME280;22607;49.550;11.940;2022-11-15T06:12:59;96654.28;;;1.70;100.00
36598;BME280;22607;49.550;11.940;2022-11-15T06:15:26;96654.16;;;1.72;100.00
36598;BME280;22607;49.550;11.940;2022-11-15T06:17:55;96654.53;;;1.67;100.00
36598;BME280;22607;49.550;11.940;2022-11-15T06:20:27;96655.25;;;1.57;100.00
36598;BME280;22607;49.550;11.940;2022-11-15T06:23:00;96651.84;;;1.46;100.00
36598;BME280;22607;49.550;11.940;2022-11-15T06:25:27;96655.13;;;1.48;100.00
36598;BME280;22607;49.550;11.940;2022-11-15T06:27:55;96657.72;;;1.59;100.00
36598;BME280;22607;49.550;11.940;2022-11-15T06:30:22;96652.16;;;1.75;100.00
36598;BME280;22607;49.550;11.940;2022-11-15T06:32:48;96648.84;;;1.73;100.00
36598;BME280;22607;49.550;11.940;2022-11-15T06:35:15;96652.66;;;1.57;100.00
36598;BME280;22607;49.550;11.940;2022-11-15T06:37:41;96651.75;;;1.47;100.00
36598;BME280;22607;49.550;11.940;2022-11-15T06:40:08;96660.69;;;1.43;100.00
36598;BME280;22607;49.550;11.940;2022-11-15T06:42:35;96658.31;;;1.40;100.00
36598;BME280;22607;49.550;11.940;2022-11-15T06:45:02;96660.69;;;1.43;100.00
36598;BME280;22607;49.550;11.940;2022-11-15T06:47:28;96666.75;;;1.65;100.00
36598;BME280;22607;49.550;11.940;2022-11-15T06:49:55;96666.97;;;1.73;100.00
36598;BME280;22607;49.550;11.940;2022-11-15T06:52:21;96667.03;;;1.62;100.00
36598;BME280;22607;49.550;11.940;2022-11-15T06:54:48;96668.66;;;1.63;100.00
36598;BME280;22607;49.550;11.940;2022-11-15T06:57:14;96668.66;;;1.63;100.00
36598;BME280;22607;49.550;11.940;2022-11-15T06:59:41;96667.91;;;1.83;100.00
36598;BME280;22607;49.550;11.940;2022-11-15T07:02:11;96667.16;;;1.93;100.00
36598;BME280;22607;49.550;11.940;2022-11-15T07:04:38;96665.75;;;2.00;100.00
36598;BME280;22607;49.550;11.940;2022-11-15T07:07:05;96669.66;;;1.94;100.00
36598;BME280;22607;49.550;11.940;2022-11-15T07:09:31;96673.31;;;1.92;100.00
36598;BME280;22607;49.550;11.940;2022-11-15T07:11:57;96672.97;;;1.85;100.00
36598;BME280;22607;49.550;11.940;2022-11-15T07:14:31;96668.09;;;1.59;100.00
36598;BME280;22607;49.550;11.940;2022-11-15T07:16:57;96666.72;;;1.88;100.00
36598;BME280;22607;49.550;11.940;2022-11-15T07:19:24;96669.28;;;1.99;100.00
36598;BME280;22607;49.550;11.940;2022-11-15T07:21:50;96668.84;;;1.82;100.00
36598;BME280;22607;49.550;11.940;2022-11-15T07:24:17;96674.72;;;1.96;100.00
36598;BME280;22607;49.550;11.940;2022-11-15T07:26:43;96669.69;;;2.16;100.00
36598;BME280;22607;49.550;11.940;2022-11-15T07:29:10;96667.97;;;2.38;100.00
36598;BME280;22607;49.550;11.940;2022-11-15T07:31:36;96662.34;;;2.54;100.00
36598;BME280;22607;49.550;11.940;2022-11-15T07:34:04;96666.72;;;2.53;100.00
36598;BME280;22607;49.550;11.940;2022-11-15T07:36:30;96659.66;;;2.55;100.00
36598;BME280;22607;49.550;11.940;2022-11-15T07:38:57;96658.50;;;2.48;100.00
36598;BME280;22607;49.550;11.940;2022-11-15T07:41:23;96659.00;;;2.42;100.00
36598;BME280;22607;49.550;11.940;2022-11-15T07:43:53;96651.22;;;2.63;100.00
36598;BME280;22607;49.550;11.940;2022-11-15T07:46:19;96646.72;;;2.86;100.00
36598;BME280;22607;49.550;11.940;2022-11-15T07:48:45;96658.25;;;2.72;100.00
36598;BME280;22607;49.550;11.940;2022-11-15T07:51:12;96671.38;;;2.38;100.00
36598;BME280;22607;49.550;11.940;2022-11-15T07:53:40;96676.81;;;2.35;100.00
36598;BME280;22607;49.550;11.940;2022-11-15T07:56:07;96666.50;;;2.45;100.00
36598;BME280;22607;49.550;11.940;2022-11-15T07:58:33;96658.41;;;3.02;100.00
36598;BME280;22607;49.550;11.940;2022-11-15T08:01:03;96652.75;;;3.18;100.00
36598;BME280;22607;49.550;11.940;2022-11-15T08:03:31;96652.66;;;3.30;100.00
36598;BME280;22607;49.550;11.940;2022-11-15T08:05:58;96660.38;;;3.20;100.00
36598;BME280;22607;49.550;11.940;2022-11-15T08:08:25;96658.97;;;3.06;100.00
36598;BME280;22607;49.550;11.940;2022-11-15T08:10:51;96661.34;;;3.19;100.00
36598;BME280;22607;49.550;11.940;2022-11-15T08:13:18;96657.72;;;3.31;100.00
36598;BME280;22607;49.550;11.940;2022-11-15T08:15:44;96645.56;;;3.32;100.00
36598;BME280;22607;49.550;11.940;2022-11-15T08:18:14;96640.69;;;3.48;100.00
36598;BME280;22607;49.550;11.940;2022-11-15T08:20:41;96646.59;;;3.60;100.00
36598;BME280;22607;49.550;11.940;2022-11-15T08:23:09;96645.81;;;3.28;100.00
36598;BME280;22607;49.550;11.940;2022-11-15T08:25:36;96648.25;;;3.20;100.00
36598;BME280;22607;49.550;11.940;2022-11-15T08:28:07;96647.50;;;3.39;100.00
36598;BME280;22607;49.550;11.940;2022-11-15T08:30:34;96630.66;;;4.04;100.00
36598;BME280;22607;49.550;11.940;2022-11-15T08:33:03;96626.31;;;4.35;100.00
36598;BME280;22607;49.550;11.940;2022-11-15T08:35:30;96620.53;;;4.41;100.00
36598;BME280;22607;49.550;11.940;2022-11-15T08:37:56;96625.22;;;4.95;100.00
36598;BME280;22607;49.550;11.940;2022-11-15T08:40:22;96616.69;;;5.87;100.00
36598;BME280;22607;49.550;11.940;2022-11-15T08:42:49;96610.19;;;6.64;100.00
36598;BME280;22607;49.550;11.940;2022-11-15T08:45:16;96608.81;;;7.04;100.00
36598;BME280;22607;49.550;11.940;2022-11-15T08:47:43;96605.59;;;7.70;99.72
36598;BME280;22607;49.550;11.940;2022-11-15T08:50:16;96605.53;;;8.22;94.49
36598;BME280;22607;49.550;11.940;2022-11-15T08:52:42;96598.03;;;8.44;91.67
36598;BME280;22607;49.550;11.940;2022-11-15T08:55:09;96587.22;;;8.47;90.88
36598;BME280;22607;49.550;11.940;2022-11-15T08:57:35;96588.06;;;8.64;90.30
36598;BME280;22607;49.550;11.940;2022-11-15T09:00:02;96584.44;;;8.65;90.64
36598;BME280;22607;49.550;11.940;2022-11-15T09:02:29;96580.47;;;8.86;87.54
36598;BME280;22607;49.550;11.940;2022-11-15T09:04:56;96583.50;;;9.14;88.84
36598;BME280;22607;49.550;11.940;2022-11-15T09:07:29;96580.88;;;9.23;89.38
36598;BME280;22607;49.550;11.940;2022-11-15T09:10:09;96580.72;;;9.56;86.24
36598;BME280;22607;49.550;11.940;2022-11-15T09:12:37;96582.03;;;9.83;85.21
36598;BME280;22607;49.550;11.940;2022-11-15T09:15:04;96572.72;;;10.04;84.17
36598;BME280;22607;49.550;11.940;2022-11-15T09:17:31;96575.16;;;10.29;81.02
36598;BME280;22607;49.550;11.940;2022-11-15T09:19:57;96579.13;;;10.25;81.36
36598;BME280;22607;49.550;11.940;2022-11-15T09:22:39;96581.56;;;10.27;81.59
36598;BME280;22607;49.550;11.940;2022-11-15T09:25:06;96583.41;;;10.41;82.71
36598;BME280;22607;49.550;11.940;2022-11-15T09:27:36;96572.72;;;10.66;82.81
36598;BME280;22607;49.550;11.940;2022-11-15T09:30:09;96574.91;;;10.77;81.22
36598;BME280;22607;49.550;11.940;2022-11-15T09:32:37;96566.13;;;10.85;79.78
36598;BME280;22607;49.550;11.940;2022-11-15T09:35:04;96565.84;;;11.10;81.46
36598;BME280;22607;49.550;11.940;2022-11-15T09:37:31;96568.38;;;11.34;79.38
36598;BME280;22607;49.550;11.940;2022-11-15T09:39:58;96562.38;;;11.40;78.38
36598;BME280;22607;49.550;11.940;2022-11-15T09:42:29;96559.38;;;11.43;80.82
36598;BME280;22607;49.550;11.940;2022-11-15T09:45:01;96556.50;;;11.75;78.37
36598;BME280;22607;49.550;11.940;2022-11-15T09:49:58;96546.94;;;12.11;75.47
36598;BME280;22607;49.550;11.940;2022-11-15T09:52:28;96545.75;;;12.13;74.76
36598;BME280;22607;49.550;11.940;2022-11-15T09:54:54;96544.19;;;12.19;74.93
36598;BME280;22607;49.550;11.940;2022-11-15T09:59:56;96527.97;;;12.44;73.86
36598;BME280;22607;49.550;11.940;2022-11-15T10:05:18;96525.88;;;12.61;74.29
36598;BME280;22607;49.550;11.940;2022-11-15T10:10:37;96528.88;;;12.58;73.52
36598;BME280;22607;49.550;11.940;2022-11-15T10:13:06;96516.75;;;12.64;73.52
36598;BME280;22607;49.550;11.940;2022-11-15T10:15:37;96505.22;;;12.65;72.53
36598;BME280;22607;49.550;11.940;2022-11-15T10:18:06;96507.53;;;12.81;71.85
36598;BME280;22607;49.550;11.940;2022-11-15T10:21:20;96502.16;;;13.03;71.74
36598;BME280;22607;49.550;11.940;2022-11-15T10:23:25;96491.84;;;13.08;70.60
36598;BME280;22607;49.550;11.940;2022-11-15T10:26:00;96486.56;;;13.08;71.73
36598;BME280;22607;49.550;11.940;2022-11-15T10:28:32;96482.72;;;13.11;71.52
36598;BME280;22607;49.550;11.940;2022-11-15T10:31:01;96483.75;;;13.10;70.98
36598;BME280;22607;49.550;11.940;2022-11-15T10:33:31;96472.03;;;13.26;72.29
36598;BME280;22607;49.550;11.940;2022-11-15T10:43:46;96448.59;;;13.51;67.35
36598;BME280;22607;49.550;11.940;2022-11-15T10:46:27;96446.78;;;13.65;69.16
36598;BME280;22607;49.550;11.940;2022-11-15T10:49:15;96439.66;;;13.59;69.67
36598;BME280;22607;49.550;11.940;2022-11-15T10:51:52;96427.03;;;13.41;69.85
36598;BME280;22607;49.550;11.940;2022-11-15T10:54:23;96433.19;;;13.69;67.97
36598;BME280;22607;49.550;11.940;2022-11-15T10:56:52;96430.16;;;13.78;68.88
36598;BME280;22607;49.550;11.940;2022-11-15T10:59:23;96425.41;;;13.47;70.63
36598;BME280;22607;49.550;11.940;2022-11-15T11:01:51;96427.50;;;13.72;70.14
36598;BME280;22607;49.550;11.940;2022-11-15T11:04:17;96411.47;;;13.80;70.21
36598;BME280;22607;49.550;11.940;2022-11-15T11:06:58;96410.84;;;13.58;69.26
36598;BME280;22607;49.550;11.940;2022-11-15T11:09:31;96412.25;;;13.60;72.33
36598;BME280;22607;49.550;11.940;2022-11-15T11:11:58;96398.69;;;13.97;70.26
36598;BME280;22607;49.550;11.940;2022-11-15T11:14:30;96392.97;;;14.07;69.41
36598;BME280;22607;49.550;11.940;2022-11-15T11:24:48;96372.25;;;14.24;68.88
36598;BME280;22607;49.550;11.940;2022-11-15T11:35:28;96366.34;;;14.09;68.33
36598;BME280;22607;49.550;11.940;2022-11-15T11:38:04;96360.69;;;13.98;69.28
36598;BME280;22607;49.550;11.940;2022-11-15T11:40:35;96354.41;;;13.99;69.74
36598;BME280;22607;49.550;11.940;2022-11-15T11:50:40;96340.59;;;13.97;67.86
36598;BME280;22607;49.550;11.940;2022-11-15T11:55:57;96337.34;;;13.88;67.96
36598;BME280;22607;49.550;11.940;2022-11-15T11:58:28;96334.47;;;14.10;66.89
36598;BME280;22607;49.550;11.940;2022-11-15T12:03:56;96327.97;;;14.06;67.05
36598;BME280;22607;49.550;11.940;2022-11-15T12:06:27;96326.97;;;13.94;68.38
36598;BME280;22607;49.550;11.940;2022-11-15T12:08:59;96321.91;;;14.06;66.60
36598;BME280;22607;49.550;11.940;2022-11-15T12:11:47;96311.75;;;14.02;66.64
36598;BME280;22607;49.550;11.940;2022-11-15T12:14:33;96314.00;;;13.99;65.93
36598;BME280;22607;49.550;11.940;2022-11-15T12:17:02;96308.94;;;13.90;67.11
36598;BME280;22607;49.550;11.940;2022-11-15T12:19:29;96311.34;;;13.99;66.45
36598;BME280;22607;49.550;11.940;2022-11-15T12:24:27;96303.13;;;14.27;66.65
36598;BME280;22607;49.550;11.940;2022-11-15T12:29:42;96304.31;;;14.38;64.51
36598;BME280;22607;49.550;11.940;2022-11-15T12:34:51;96293.06;;;14.04;66.96
36598;BME280;22607;49.550;11.940;2022-11-15T12:37:32;96293.03;;;14.17;66.90
36598;BME280;22607;49.550;11.940;2022-11-15T12:44:57;96279.03;;;14.10;66.41
36598;BME280;22607;49.550;11.940;2022-11-15T12:47:25;96276.94;;;14.26;66.65
36598;BME280;22607;49.550;11.940;2022-11-15T12:49:52;96274.28;;;14.26;66.57
36598;BME280;22607;49.550;11.940;2022-11-15T12:52:19;96266.91;;;14.41;65.57
36598;BME280;22607;49.550;11.940;2022-11-15T12:54:49;96269.25;;;14.56;64.94
36598;BME280;22607;49.550;11.940;2022-11-15T13:02:26;96268.81;;;14.21;66.42
36598;BME280;22607;49.550;11.940;2022-11-15T13:04:54;96269.66;;;14.14;66.91
36598;BME280;22607;49.550;11.940;2022-11-15T13:22:27;96272.44;;;13.06;80.61
36598;BME280;22607;49.550;11.940;2022-11-15T13:25:14;96263.47;;;12.87;84.03
36598;BME280;22607;49.550;11.940;2022-11-15T13:27:42;96270.34;;;12.74;85.25
36598;BME280;22607;49.550;11.940;2022-11-15T13:30:16;96264.25;;;12.60;87.49
36598;BME280;22607;49.550;11.940;2022-11-15T13:32:46;96261.00;;;12.52;89.37
36598;BME280;22607;49.550;11.940;2022-11-15T13:35:20;96259.97;;;12.53;90.37
36598;BME280;22607;49.550;11.940;2022-11-15T13:37:49;96261.78;;;12.52;91.33
36598;BME280;22607;49.550;11.940;2022-11-15T13:40:21;96257.94;;;12.55;91.65
36598;BME280;22607;49.550;11.940;2022-11-15T13:42:48;96256.38;;;12.67;92.29
36598;BME280;22607;49.550;11.940;2022-11-15T13:45:15;96247.63;;;12.67;89.74
36598;BME280;22607;49.550;11.940;2022-11-15T13:47:50;96241.97;;;12.63;91.81
36598;BME280;22607;49.550;11.940;2022-11-15T13:50:17;96240.16;;;12.64;93.03
36598;BME280;22607;49.550;11.940;2022-11-15T13:52:46;96233.88;;;12.65;93.78
36598;BME280;22607;49.550;11.940;2022-11-15T13:55:16;96233.47;;;12.61;99.56
36598;BME280;22607;49.550;11.940;2022-11-15T13:57:44;96232.03;;;12.65;98.94
36598;BME280;22607;49.550;11.940;2022-11-15T14:03:05;96221.28;;;12.60;94.54
36598;BME280;22607;49.550;11.940;2022-11-15T14:05:32;96214.38;;;12.52;96.35
36598;BME280;22607;49.550;11.940;2022-11-15T14:12:59;96212.41;;;12.68;97.97
36598;BME280;22607;49.550;11.940;2022-11-15T14:15:32;96210.56;;;12.75;100.00
36598;BME280;22607;49.550;11.940;2022-11-15T14:18:06;96210.56;;;12.62;100.00
36598;BME280;22607;49.550;11.940;2022-11-15T14:23:03;96202.66;;;12.68;98.68
36598;BME280;22607;49.550;11.940;2022-11-15T14:25:32;96203.47;;;12.69;97.03
36598;BME280;22607;49.550;11.940;2022-11-15T14:28:12;96192.75;;;12.77;96.66
36598;BME280;22607;49.550;11.940;2022-11-15T14:30:39;96189.91;;;12.92;95.44
36598;BME280;22607;49.550;11.940;2022-11-15T14:35:58;96182.81;;;12.93;93.79
36598;BME280;22607;49.550;11.940;2022-11-15T14:38:28;96182.19;;;12.84;98.17
36598;BME280;22607;49.550;11.940;2022-11-15T14:40:56;96175.94;;;12.78;99.59
36598;BME280;22607;49.550;11.940;2022-11-15T14:43:22;96172.06;;;12.74;98.38
36598;BME280;22607;49.550;11.940;2022-11-15T14:45:49;96172.66;;;12.63;100.00
36598;BME280;22607;49.550;11.940;2022-11-15T14:48:17;96169.81;;;12.51;100.00
36598;BME280;22607;49.550;11.940;2022-11-15T14:50:43;96153.00;;;12.45;100.00
36598;BME280;22607;49.550;11.940;2022-11-15T14:53:15;96163.50;;;12.31;100.00